Aérodrome :
LOGIN :

S'inscrire | Disclaimer

   EN    FR    IT 

 










Légende :    VFR   VFR Marginal   IFR   IFR Intensif   IFR Très Intensif
Visi : 
Plafond : 
>= 8 km
>= 3000ft
5 à 8 km
1000 à 3000 ft
1500m à 5 km
500 à 1000 ft
800 à 1500m
200 à 500 ft
< 800m
< 200 ft
Symboles :   Orages  Brouillard  Fortes neiges  Fortes précipitations  Vent > 20 kt
SIGMETs :   Divers  Orages  Givrage  Turbulence  Onde Orograph.  Cendres Volcan.






- Altitude de l'aérodrome : 741 ft
- Code IATA : PED


LKPD - Pardubice AB

DERNIER METAR :
  • 181900Z 14005KT 100V170 CAVOK 27/16 Q1013 NOSIG

METARs EXPIRÉS :
  • 181800Z 15007KT CAVOK 28/15 Q1013 NOSIG
  • 181700Z 18007KT 130V200 CAVOK 29/15 Q1013 NOSIG
  • 181630Z 15009KT 120V180 CAVOK 29/15 Q1014 NOSIG RMK BLU BLU
  • 181600Z 15006KT 110V210 CAVOK 29/15 Q1014 NOSIG RMK BLU BLU
  • 181530Z 16008KT CAVOK 30/15 Q1014 NOSIG RMK BLU BLU
  • 181500Z 19005KT 150V230 CAVOK 30/14 Q1014 NOSIG
  • 181430Z 15004KT 100V200 CAVOK 30/15 Q1015 NOSIG RMK BLU BLU

TAF TAF LKPD
Valide du 18 à 18h jusqu'au 19 à 18h UTC


181700Z 1818/1918 15007KT CAVOK
BECMG 1905/1907 29008KT



MET'MAP, la Météo Aéronautique d'un coup d'oeil ! - Copyright ORBIFLY Décembre 2007 - Disclaimer

ORBIFLY MET'MAP TEAM :

Programmation & Développement : Alexandra Zaïnal
Sur une idée originale de : Baudouin d'Aumeries
Soutien technique & logistique : Manuel Goepfert
Assistance : Marc-Olivier Méhu




SOURCES & CREDITS :

   NOAA